SWA1454 KMDW-KMSP
Flight info
| Callsign | SWA1454 |
|---|---|
| Flight time | 1h 3m |
| Altitude | 38000 |
| Route | PMPKN NEATO DLLAN RONIC KAMMA KKILR4 |
| Aircraft | B38M/M-SDE1FGHILORVWXY/HB1 |
Departure
| Time | 2026-05-04 01:33 |
|---|---|
| Airport | Chicago Midway International Airport (KMDW) |
Arrival
| Time | 2026-05-04 02:36 |
|---|---|
| Airport | Minneapolis–Saint Paul International Airport / Wold–Chamberlain Field (KMSP) |
| Time | Latitude | Longitude | Altitude | Speed | Heading |
|---|---|---|---|---|---|
| 2026-05-04 01:05 | 41.78801 | -87.74296 | 629 ft | 0 kts | 342° |
| 2026-05-04 01:24 | 41.78799 | -87.74295 | 629 ft | 0 kts | 341° |
| 2026-05-04 01:24 | 41.78788 | -87.74296 | 629 ft | 2 kts | 15° |
| 2026-05-04 01:24 | 41.78774 | -87.74299 | 629 ft | 1 kts | 1° |
| 2026-05-04 01:24 | 41.78769 | -87.74300 | 629 ft | 0 kts | 343° |
| 2026-05-04 01:25 | 41.78764 | -87.74295 | 629 ft | 0 kts | 285° |
| 2026-05-04 01:25 | 41.78764 | -87.74287 | 629 ft | 0 kts | 234° |
| 2026-05-04 01:25 | 41.78767 | -87.74282 | 629 ft | 1 kts | 205° |
| 2026-05-04 01:25 | 41.78771 | -87.74279 | 629 ft | 0 kts | 215° |
| 2026-05-04 01:28 | 41.78765 | -87.74284 | 629 ft | 1 kts | 210° |
| 2026-05-04 01:28 | 41.78751 | -87.74293 | 629 ft | 2 kts | 204° |
| 2026-05-04 01:28 | 41.78734 | -87.74306 | 629 ft | 3 kts | 214° |
| 2026-05-04 01:28 | 41.78717 | -87.74326 | 629 ft | 3 kts | 225° |
| 2026-05-04 01:29 | 41.78675 | -87.74377 | 629 ft | 10 kts | 223° |
| 2026-05-04 01:29 | 41.78623 | -87.74442 | 629 ft | 9 kts | 222° |
| 2026-05-04 01:29 | 41.78577 | -87.74500 | 629 ft | 8 kts | 224° |
| 2026-05-04 01:29 | 41.78536 | -87.74554 | 629 ft | 8 kts | 224° |
| 2026-05-04 01:30 | 41.78508 | -87.74639 | 629 ft | 10 kts | 295° |
| 2026-05-04 01:30 | 41.78553 | -87.74714 | 629 ft | 9 kts | 314° |
| 2026-05-04 01:30 | 41.78600 | -87.74773 | 629 ft | 8 kts | 327° |
| 2026-05-04 01:30 | 41.78671 | -87.74790 | 629 ft | 14 kts | 359° |
| 2026-05-04 01:31 | 41.78765 | -87.74702 | 629 ft | 19 kts | 43° |
| 2026-05-04 01:31 | 41.78862 | -87.74579 | 629 ft | 18 kts | 43° |
| 2026-05-04 01:31 | 41.78957 | -87.74460 | 629 ft | 18 kts | 41° |
| 2026-05-04 01:31 | 41.79046 | -87.74346 | 629 ft | 17 kts | 44° |
| 2026-05-04 01:32 | 41.79123 | -87.74263 | 629 ft | 10 kts | 14° |
| 2026-05-04 01:32 | 41.79174 | -87.74306 | 629 ft | 9 kts | 280° |
| 2026-05-04 01:32 | 41.79151 | -87.74371 | 629 ft | 7 kts | 220° |
| 2026-05-04 01:32 | 41.79090 | -87.74446 | 629 ft | 28 kts | 224° |
| 2026-05-04 01:33 | 41.78746 | -87.74884 | 629 ft | 106 kts | 223° |
| 2026-05-04 01:33 | 41.78029 | -87.75796 | 676 ft | 173 kts | 223° |
| 2026-05-04 01:33 | 41.77153 | -87.76909 | 1550 ft | 187 kts | 225° |
| 2026-05-04 01:33 | 41.76213 | -87.78191 | 2423 ft | 207 kts | 230° |
| 2026-05-04 01:34 | 41.75652 | -87.79223 | 3194 ft | 208 kts | 245° |
| 2026-05-04 01:34 | 41.75658 | -87.81826 | 4292 ft | 237 kts | 296° |
| 2026-05-04 01:34 | 41.76900 | -87.83383 | 5285 ft | 263 kts | 332° |
| 2026-05-04 01:34 | 41.78762 | -87.83726 | 6290 ft | 290 kts | 5° |
| 2026-05-04 01:35 | 41.80645 | -87.82619 | 7254 ft | 316 kts | 34° |
| 2026-05-04 01:35 | 41.82069 | -87.80337 | 8379 ft | 331 kts | 56° |
| 2026-05-04 01:35 | 41.83229 | -87.77726 | 9588 ft | 331 kts | 47° |
| 2026-05-04 01:35 | 41.84974 | -87.75812 | 10699 ft | 324 kts | 19° |
| 2026-05-04 01:36 | 41.87114 | -87.75261 | 11750 ft | 316 kts | 351° |
| 2026-05-04 01:36 | 41.89146 | -87.76147 | 12812 ft | 311 kts | 327° |
| 2026-05-04 01:36 | 41.90973 | -87.77699 | 13840 ft | 315 kts | 326° |
| 2026-05-04 01:36 | 41.92915 | -87.79075 | 14799 ft | 321 kts | 334° |
| 2026-05-04 01:37 | 41.95049 | -87.80050 | 15754 ft | 327 kts | 341° |
| 2026-05-04 01:37 | 41.97269 | -87.80755 | 16670 ft | 333 kts | 344° |
| 2026-05-04 01:37 | 41.99515 | -87.81357 | 17563 ft | 336 kts | 345° |
| 2026-05-04 01:37 | 42.01817 | -87.81943 | 18407 ft | 340 kts | 345° |
| 2026-05-04 01:38 | 42.04163 | -87.82536 | 19192 ft | 345 kts | 345° |
| 2026-05-04 01:38 | 42.06533 | -87.83132 | 19987 ft | 349 kts | 345° |
| 2026-05-04 01:38 | 42.08938 | -87.83739 | 20818 ft | 351 kts | 345° |
| 2026-05-04 01:38 | 42.11330 | -87.84342 | 21527 ft | 356 kts | 345° |
| 2026-05-04 01:39 | 42.13765 | -87.84956 | 22302 ft | 358 kts | 345° |
| 2026-05-04 01:39 | 42.16204 | -87.85570 | 23016 ft | 361 kts | 345° |
| 2026-05-04 01:39 | 42.18661 | -87.86189 | 23668 ft | 365 kts | 345° |
| 2026-05-04 01:39 | 42.21155 | -87.86818 | 24381 ft | 367 kts | 346° |
| 2026-05-04 01:40 | 42.23698 | -87.87460 | 25065 ft | 370 kts | 346° |
| 2026-05-04 01:40 | 42.26252 | -87.88107 | 25690 ft | 373 kts | 346° |
| 2026-05-04 01:40 | 42.28788 | -87.88748 | 26566 ft | 367 kts | 346° |
| 2026-05-04 01:40 | 42.31278 | -87.89376 | 27364 ft | 364 kts | 346° |
| 2026-05-04 01:41 | 42.33741 | -87.89997 | 28061 ft | 362 kts | 346° |
| 2026-05-04 01:41 | 42.36231 | -87.90625 | 28704 ft | 361 kts | 346° |
| 2026-05-04 01:41 | 42.38680 | -87.91242 | 29356 ft | 358 kts | 346° |
| 2026-05-04 01:41 | 42.41113 | -87.91856 | 30000 ft | 356 kts | 346° |
| 2026-05-04 01:42 | 42.43542 | -87.92471 | 30582 ft | 354 kts | 346° |
| 2026-05-04 01:42 | 42.45942 | -87.93080 | 31128 ft | 352 kts | 346° |
| 2026-05-04 01:42 | 42.48344 | -87.93690 | 31557 ft | 352 kts | 345° |
| 2026-05-04 01:42 | 42.50794 | -87.94312 | 31978 ft | 351 kts | 345° |
| 2026-05-04 01:43 | 42.53220 | -87.94929 | 32371 ft | 351 kts | 345° |
| 2026-05-04 01:43 | 42.55623 | -87.95541 | 32762 ft | 351 kts | 345° |
| 2026-05-04 01:43 | 42.58030 | -87.96154 | 33137 ft | 350 kts | 345° |
| 2026-05-04 01:43 | 42.60414 | -87.96761 | 33478 ft | 350 kts | 345° |
| 2026-05-04 01:44 | 42.62872 | -87.97257 | 33839 ft | 352 kts | 350° |
| 2026-05-04 01:44 | 42.65331 | -87.97490 | 33990 ft | 359 kts | 352° |
| 2026-05-04 01:44 | 42.67849 | -87.97659 | 33971 ft | 369 kts | 352° |
| 2026-05-04 01:45 | 42.73056 | -87.98761 | 33936 ft | 381 kts | 336° |
| 2026-05-04 01:45 | 42.80247 | -88.03868 | 34442 ft | 391 kts | 328° |
| 2026-05-04 01:46 | 42.82638 | -88.05722 | 34641 ft | 394 kts | 328° |
| 2026-05-04 01:46 | 42.85009 | -88.07565 | 34873 ft | 396 kts | 328° |
| 2026-05-04 01:46 | 42.87413 | -88.09438 | 35110 ft | 397 kts | 328° |
| 2026-05-04 01:46 | 42.89787 | -88.11289 | 35307 ft | 399 kts | 328° |
| 2026-05-04 01:47 | 42.94666 | -88.15104 | 35715 ft | 402 kts | 328° |
| 2026-05-04 01:47 | 42.97081 | -88.16996 | 35897 ft | 404 kts | 328° |
| 2026-05-04 01:47 | 42.99526 | -88.18913 | 36074 ft | 405 kts | 328° |
| 2026-05-04 01:48 | 43.02009 | -88.20862 | 36263 ft | 406 kts | 328° |
| 2026-05-04 01:48 | 43.04452 | -88.22782 | 36431 ft | 408 kts | 328° |
| 2026-05-04 01:48 | 43.06894 | -88.24706 | 36584 ft | 409 kts | 328° |
| 2026-05-04 01:48 | 43.09284 | -88.26770 | 36729 ft | 410 kts | 324° |
| 2026-05-04 01:49 | 43.11514 | -88.29075 | 36886 ft | 410 kts | 318° |
| 2026-05-04 01:49 | 43.13585 | -88.31840 | 37020 ft | 411 kts | 312° |
| 2026-05-04 01:49 | 43.15462 | -88.34842 | 37154 ft | 413 kts | 309° |
| 2026-05-04 01:49 | 43.17269 | -88.37901 | 37290 ft | 414 kts | 309° |
| 2026-05-04 01:50 | 43.18950 | -88.40773 | 37410 ft | 415 kts | 309° |
| 2026-05-04 01:50 | 43.20728 | -88.43812 | 37533 ft | 416 kts | 309° |
| 2026-05-04 01:50 | 43.24398 | -88.50091 | 37716 ft | 419 kts | 309° |
| 2026-05-04 01:51 | 43.28077 | -88.56394 | 37736 ft | 426 kts | 309° |
| 2026-05-04 01:51 | 43.31768 | -88.62734 | 37738 ft | 429 kts | 309° |
| 2026-05-04 01:52 | 43.35495 | -88.69145 | 37727 ft | 418 kts | 308° |
| 2026-05-04 01:52 | 43.39041 | -88.75261 | 37739 ft | 400 kts | 308° |
| 2026-05-04 01:53 | 43.42503 | -88.81248 | 37736 ft | 402 kts | 308° |
| 2026-05-04 01:53 | 43.46012 | -88.87325 | 37738 ft | 405 kts | 308° |
| 2026-05-04 01:54 | 43.49493 | -88.93366 | 37735 ft | 403 kts | 308° |
| 2026-05-04 01:54 | 43.52930 | -88.99339 | 37736 ft | 403 kts | 308° |
| 2026-05-04 01:55 | 43.56409 | -89.05399 | 37739 ft | 404 kts | 308° |
| 2026-05-04 01:55 | 43.59874 | -89.11446 | 37740 ft | 403 kts | 308° |
| 2026-05-04 01:56 | 43.63347 | -89.17522 | 37744 ft | 404 kts | 308° |
| 2026-05-04 01:56 | 43.66812 | -89.23601 | 37741 ft | 404 kts | 308° |
| 2026-05-04 01:57 | 43.70267 | -89.29672 | 37794 ft | 402 kts | 308° |
| 2026-05-04 01:57 | 43.73734 | -89.35770 | 37775 ft | 407 kts | 308° |
| 2026-05-04 01:58 | 43.77194 | -89.41872 | 37746 ft | 402 kts | 308° |
| 2026-05-04 01:58 | 43.80637 | -89.47956 | 37737 ft | 403 kts | 308° |
| 2026-05-04 01:59 | 43.84120 | -89.54127 | 37741 ft | 404 kts | 308° |
| 2026-05-04 01:59 | 43.87571 | -89.60255 | 37740 ft | 403 kts | 308° |
| 2026-05-04 02:00 | 43.90985 | -89.66331 | 37737 ft | 403 kts | 308° |
| 2026-05-04 02:00 | 43.94409 | -89.72438 | 37739 ft | 401 kts | 308° |
| 2026-05-04 02:01 | 43.97817 | -89.78522 | 37743 ft | 401 kts | 308° |
| 2026-05-04 02:01 | 44.01228 | -89.84631 | 37744 ft | 402 kts | 308° |
| 2026-05-04 02:02 | 44.04487 | -89.90480 | 37743 ft | 403 kts | 308° |
| 2026-05-04 02:02 | 44.07917 | -89.96645 | 37749 ft | 402 kts | 308° |
| 2026-05-04 02:03 | 44.11394 | -90.02611 | 37750 ft | 401 kts | 309° |
| 2026-05-04 02:03 | 44.14876 | -90.08512 | 37748 ft | 401 kts | 309° |
| 2026-05-04 02:04 | 44.18404 | -90.14533 | 37738 ft | 401 kts | 309° |
| 2026-05-04 02:04 | 44.21921 | -90.20561 | 37745 ft | 402 kts | 309° |
| 2026-05-04 02:05 | 44.25420 | -90.26569 | 37743 ft | 402 kts | 309° |
| 2026-05-04 02:05 | 44.28936 | -90.32619 | 37749 ft | 401 kts | 309° |
| 2026-05-04 02:06 | 44.32399 | -90.38696 | 37751 ft | 401 kts | 307° |
| 2026-05-04 02:06 | 44.35347 | -90.45251 | 37744 ft | 401 kts | 297° |
| 2026-05-04 02:07 | 44.36516 | -90.48789 | 37470 ft | 397 kts | 295° |
| 2026-05-04 02:07 | 44.37589 | -90.52293 | 36921 ft | 396 kts | 295° |
| 2026-05-04 02:07 | 44.38653 | -90.55849 | 36443 ft | 391 kts | 295° |
| 2026-05-04 02:07 | 44.39679 | -90.59308 | 36027 ft | 386 kts | 295° |
| 2026-05-04 02:08 | 44.40699 | -90.62757 | 35520 ft | 383 kts | 295° |
| 2026-05-04 02:08 | 44.41719 | -90.66214 | 35001 ft | 380 kts | 294° |
| 2026-05-04 02:08 | 44.42702 | -90.69543 | 34437 ft | 376 kts | 295° |
| 2026-05-04 02:08 | 44.43694 | -90.72897 | 33852 ft | 373 kts | 295° |
| 2026-05-04 02:09 | 44.44675 | -90.76213 | 33267 ft | 370 kts | 295° |
| 2026-05-04 02:09 | 44.45653 | -90.79519 | 32682 ft | 367 kts | 295° |
| 2026-05-04 02:09 | 44.46627 | -90.82816 | 32068 ft | 364 kts | 295° |
| 2026-05-04 02:09 | 44.47588 | -90.86080 | 31471 ft | 362 kts | 295° |
| 2026-05-04 02:10 | 44.48548 | -90.89346 | 30866 ft | 360 kts | 295° |
| 2026-05-04 02:10 | 44.49504 | -90.92605 | 30277 ft | 356 kts | 295° |
| 2026-05-04 02:10 | 44.50429 | -90.95760 | 29716 ft | 353 kts | 295° |
| 2026-05-04 02:10 | 44.51049 | -90.97875 | 29341 ft | 351 kts | 295° |
| 2026-05-04 02:11 | 44.52287 | -91.02103 | 28571 ft | 346 kts | 295° |
| 2026-05-04 02:11 | 44.53183 | -91.05173 | 28003 ft | 344 kts | 295° |
| 2026-05-04 02:11 | 44.54080 | -91.08247 | 27415 ft | 342 kts | 295° |
| 2026-05-04 02:11 | 44.54984 | -91.11347 | 26888 ft | 337 kts | 295° |
| 2026-05-04 02:12 | 44.55865 | -91.14374 | 26335 ft | 335 kts | 295° |
| 2026-05-04 02:12 | 44.56747 | -91.17410 | 25789 ft | 332 kts | 295° |
| 2026-05-04 02:12 | 44.57611 | -91.20383 | 25234 ft | 329 kts | 295° |
| 2026-05-04 02:12 | 44.58467 | -91.23338 | 24673 ft | 326 kts | 295° |
| 2026-05-04 02:13 | 44.59321 | -91.26288 | 24149 ft | 323 kts | 295° |
| 2026-05-04 02:13 | 44.60162 | -91.29198 | 23773 ft | 316 kts | 295° |
| 2026-05-04 02:13 | 44.60979 | -91.32030 | 23746 ft | 312 kts | 295° |
| 2026-05-04 02:13 | 44.61803 | -91.34878 | 23746 ft | 319 kts | 295° |
| 2026-05-04 02:14 | 44.62647 | -91.37790 | 23741 ft | 323 kts | 295° |
| 2026-05-04 02:14 | 44.63495 | -91.40726 | 23743 ft | 322 kts | 295° |
| 2026-05-04 02:14 | 44.64331 | -91.43626 | 23744 ft | 322 kts | 295° |
| 2026-05-04 02:14 | 44.65174 | -91.46549 | 23743 ft | 322 kts | 295° |
| 2026-05-04 02:15 | 44.66027 | -91.49510 | 23746 ft | 321 kts | 295° |
| 2026-05-04 02:15 | 44.66867 | -91.52431 | 23748 ft | 322 kts | 295° |
| 2026-05-04 02:15 | 44.67700 | -91.55328 | 23749 ft | 321 kts | 295° |
| 2026-05-04 02:15 | 44.68531 | -91.58225 | 23752 ft | 320 kts | 295° |
| 2026-05-04 02:16 | 44.69374 | -91.61168 | 23751 ft | 320 kts | 295° |
| 2026-05-04 02:16 | 44.70196 | -91.64043 | 23751 ft | 320 kts | 295° |
| 2026-05-04 02:16 | 44.71025 | -91.66947 | 23752 ft | 319 kts | 294° |
| 2026-05-04 02:16 | 44.71842 | -91.69804 | 23753 ft | 319 kts | 294° |
| 2026-05-04 02:17 | 44.72662 | -91.72677 | 23753 ft | 320 kts | 294° |
| 2026-05-04 02:17 | 44.73488 | -91.75571 | 23751 ft | 320 kts | 294° |
| 2026-05-04 02:17 | 44.74266 | -91.78309 | 23714 ft | 316 kts | 294° |
| 2026-05-04 02:17 | 44.75080 | -91.81181 | 23226 ft | 314 kts | 294° |
| 2026-05-04 02:18 | 44.75904 | -91.84081 | 22547 ft | 316 kts | 294° |
| 2026-05-04 02:18 | 44.76712 | -91.86932 | 22096 ft | 312 kts | 294° |
| 2026-05-04 02:18 | 44.77494 | -91.89747 | 21594 ft | 310 kts | 293° |
| 2026-05-04 02:18 | 44.78256 | -91.92552 | 21069 ft | 308 kts | 292° |
| 2026-05-04 02:19 | 44.79028 | -91.95406 | 20557 ft | 306 kts | 292° |
| 2026-05-04 02:19 | 44.79781 | -91.98190 | 20050 ft | 304 kts | 293° |
| 2026-05-04 02:19 | 44.80536 | -92.00976 | 19531 ft | 302 kts | 293° |
| 2026-05-04 02:19 | 44.81278 | -92.03715 | 19050 ft | 300 kts | 292° |
| 2026-05-04 02:20 | 44.82015 | -92.06439 | 18528 ft | 299 kts | 292° |
| 2026-05-04 02:20 | 44.82761 | -92.09197 | 18013 ft | 297 kts | 292° |
| 2026-05-04 02:20 | 44.83482 | -92.11870 | 17553 ft | 295 kts | 292° |
| 2026-05-04 02:20 | 44.84209 | -92.14569 | 17069 ft | 292 kts | 292° |
| 2026-05-04 02:21 | 44.84871 | -92.17284 | 16567 ft | 292 kts | 288° |
| 2026-05-04 02:21 | 44.85316 | -92.20065 | 16095 ft | 291 kts | 281° |
| 2026-05-04 02:21 | 44.85545 | -92.22860 | 15657 ft | 288 kts | 278° |
| 2026-05-04 02:21 | 44.85721 | -92.25684 | 15113 ft | 286 kts | 277° |
| 2026-05-04 02:22 | 44.85887 | -92.28451 | 14491 ft | 284 kts | 277° |
| 2026-05-04 02:22 | 44.86053 | -92.31192 | 13854 ft | 282 kts | 277° |
| 2026-05-04 02:22 | 44.86197 | -92.33730 | 13270 ft | 280 kts | 276° |
| 2026-05-04 02:22 | 44.86330 | -92.36443 | 12644 ft | 278 kts | 276° |
| 2026-05-04 02:23 | 44.86458 | -92.39130 | 12053 ft | 275 kts | 276° |
| 2026-05-04 02:23 | 44.86587 | -92.41805 | 11427 ft | 274 kts | 276° |
| 2026-05-04 02:23 | 44.86717 | -92.44495 | 10839 ft | 272 kts | 275° |
| 2026-05-04 02:23 | 44.86819 | -92.47120 | 10406 ft | 270 kts | 271° |
| 2026-05-04 02:24 | 44.86546 | -92.49741 | 9927 ft | 273 kts | 253° |
| 2026-05-04 02:24 | 44.85724 | -92.52175 | 9486 ft | 273 kts | 245° |
| 2026-05-04 02:24 | 44.84832 | -92.54483 | 9143 ft | 267 kts | 245° |
| 2026-05-04 02:24 | 44.83977 | -92.56751 | 8923 ft | 251 kts | 246° |
| 2026-05-04 02:25 | 44.83193 | -92.58865 | 8589 ft | 237 kts | 246° |
| 2026-05-04 02:25 | 44.82458 | -92.60861 | 8333 ft | 222 kts | 246° |
| 2026-05-04 02:25 | 44.81776 | -92.62723 | 8085 ft | 209 kts | 247° |
| 2026-05-04 02:25 | 44.81117 | -92.64522 | 7660 ft | 205 kts | 247° |
| 2026-05-04 02:26 | 44.80469 | -92.66296 | 7157 ft | 204 kts | 246° |
| 2026-05-04 02:26 | 44.79834 | -92.68023 | 6975 ft | 195 kts | 246° |
| 2026-05-04 02:26 | 44.79229 | -92.69669 | 6983 ft | 183 kts | 247° |
| 2026-05-04 02:26 | 44.78664 | -92.71207 | 6838 ft | 174 kts | 246° |
| 2026-05-04 02:27 | 44.78106 | -92.72735 | 6346 ft | 178 kts | 246° |
| 2026-05-04 02:27 | 44.77554 | -92.74234 | 5949 ft | 178 kts | 246° |
| 2026-05-04 02:27 | 44.77144 | -92.75817 | 5691 ft | 166 kts | 264° |
| 2026-05-04 02:27 | 44.77209 | -92.77400 | 5406 ft | 163 kts | 277° |
| 2026-05-04 02:28 | 44.77253 | -92.77917 | 5335 ft | 160 kts | 276° |
| 2026-05-04 02:28 | 44.77304 | -92.78623 | 5183 ft | 159 kts | 275° |
| 2026-05-04 02:28 | 44.77399 | -92.80056 | 4725 ft | 165 kts | 275° |
| 2026-05-04 02:28 | 44.77477 | -92.81187 | 4469 ft | 164 kts | 275° |
| 2026-05-04 02:29 | 44.77688 | -92.84219 | 3940 ft | 157 kts | 275° |
| 2026-05-04 02:29 | 44.77821 | -92.86128 | 3994 ft | 162 kts | 275° |
| 2026-05-04 02:29 | 44.77940 | -92.87855 | 3998 ft | 165 kts | 275° |
| 2026-05-04 02:30 | 44.78051 | -92.89463 | 3995 ft | 164 kts | 275° |
| 2026-05-04 02:30 | 44.78162 | -92.91065 | 3992 ft | 161 kts | 275° |
| 2026-05-04 02:30 | 44.78270 | -92.92644 | 4002 ft | 164 kts | 275° |
| 2026-05-04 02:30 | 44.78379 | -92.94225 | 3995 ft | 165 kts | 275° |
| 2026-05-04 02:31 | 44.78491 | -92.95854 | 3996 ft | 165 kts | 275° |
| 2026-05-04 02:31 | 44.78602 | -92.97471 | 3995 ft | 165 kts | 275° |
| 2026-05-04 02:31 | 44.78712 | -92.99079 | 3997 ft | 164 kts | 275° |
| 2026-05-04 02:31 | 44.78899 | -93.00657 | 3995 ft | 166 kts | 287° |
| 2026-05-04 02:32 | 44.79495 | -93.02017 | 3953 ft | 156 kts | 302° |
| 2026-05-04 02:32 | 44.80050 | -93.03223 | 3690 ft | 139 kts | 297° |
| 2026-05-04 02:32 | 44.80553 | -93.04406 | 3117 ft | 141 kts | 297° |
| 2026-05-04 02:32 | 44.81049 | -93.05576 | 2929 ft | 136 kts | 297° |
| 2026-05-04 02:33 | 44.81588 | -93.06713 | 3009 ft | 145 kts | 304° |
| 2026-05-04 02:33 | 44.82163 | -93.07890 | 3110 ft | 139 kts | 295° |
| 2026-05-04 02:33 | 44.82613 | -93.09100 | 2981 ft | 141 kts | 294° |
| 2026-05-04 02:33 | 44.83089 | -93.10306 | 2863 ft | 141 kts | 295° |
| 2026-05-04 02:34 | 44.83596 | -93.11514 | 2662 ft | 142 kts | 297° |
| 2026-05-04 02:34 | 44.84100 | -93.12688 | 2208 ft | 139 kts | 296° |
| 2026-05-04 02:34 | 44.84580 | -93.13783 | 1888 ft | 127 kts | 298° |
| 2026-05-04 02:34 | 44.85048 | -93.14806 | 1594 ft | 123 kts | 298° |
| 2026-05-04 02:35 | 44.85494 | -93.15801 | 1356 ft | 118 kts | 298° |
| 2026-05-04 02:35 | 44.85914 | -93.16801 | 1140 ft | 119 kts | 298° |
| 2026-05-04 02:35 | 44.86339 | -93.17806 | 1091 ft | 122 kts | 299° |
| 2026-05-04 02:35 | 44.86800 | -93.18877 | 1087 ft | 132 kts | 298° |
| 2026-05-04 02:36 | 44.87282 | -93.19978 | 925 ft | 128 kts | 300° |
| 2026-05-04 02:36 | 44.87683 | -93.20915 | 820 ft | 79 kts | 304° |
| 2026-05-04 02:36 | 44.87903 | -93.21414 | 827 ft | 54 kts | 301° |
| 2026-05-04 02:36 | 44.88092 | -93.21832 | 831 ft | 47 kts | 300° |
| 2026-05-04 02:37 | 44.88204 | -93.22018 | 833 ft | 8 kts | 298° |
| 2026-05-04 02:37 | 44.88221 | -93.22099 | 833 ft | 9 kts | 291° |
| 2026-05-04 02:37 | 44.88248 | -93.22199 | 834 ft | 12 kts | 294° |
| 2026-05-04 02:37 | 44.88294 | -93.22324 | 835 ft | 15 kts | 300° |
| 2026-05-04 02:38 | 44.88361 | -93.22438 | 836 ft | 11 kts | 309° |
| 2026-05-04 02:38 | 44.88333 | -93.22509 | 836 ft | 7 kts | 218° |
| 2026-05-04 02:38 | 44.88316 | -93.22526 | 836 ft | 0 kts | 213° |
| 2026-05-04 02:38 | 44.88312 | -93.22529 | 836 ft | 0 kts | 213° |
| 2026-05-04 02:39 | 44.88308 | -93.22533 | 836 ft | 3 kts | 212° |
| 2026-05-04 02:39 | 44.88302 | -93.22539 | 836 ft | 0 kts | 213° |
| 2026-05-04 02:39 | 44.88300 | -93.22540 | 836 ft | 0 kts | 213° |
| 2026-05-04 02:40 | 44.88279 | -93.22541 | 836 ft | 4 kts | 149° |
| 2026-05-04 02:40 | 44.88245 | -93.22483 | 835 ft | 10 kts | 120° |
| 2026-05-04 02:40 | 44.88206 | -93.22382 | 835 ft | 12 kts | 119° |
| 2026-05-04 02:41 | 44.88159 | -93.22279 | 834 ft | 12 kts | 123° |
| 2026-05-04 02:41 | 44.88122 | -93.22173 | 833 ft | 12 kts | 90° |
| 2026-05-04 02:41 | 44.88134 | -93.22122 | 833 ft | 0 kts | 54° |
| 2026-05-04 02:43 | 44.88135 | -93.22121 | 833 ft | 0 kts | 47° |
| 2026-05-04 02:44 | 44.88143 | -93.22109 | 833 ft | 1 kts | 45° |
| 2026-05-04 02:44 | 44.88144 | -93.22108 | 833 ft | 0 kts | 45° |
| 2026-05-04 02:45 | 44.88145 | -93.22106 | 833 ft | 0 kts | 45° |
| 2026-05-04 02:45 | 44.88163 | -93.22083 | 833 ft | 5 kts | 43° |
| 2026-05-04 02:45 | 44.88191 | -93.22050 | 833 ft | 5 kts | 38° |
| 2026-05-04 02:45 | 44.88229 | -93.22012 | 833 ft | 9 kts | 33° |
| 2026-05-04 02:46 | 44.88281 | -93.21962 | 832 ft | 9 kts | 37° |
| 2026-05-04 02:46 | 44.88332 | -93.21909 | 832 ft | 8 kts | 39° |
| 2026-05-04 02:46 | 44.88377 | -93.21849 | 832 ft | 8 kts | 44° |
| 2026-05-04 02:46 | 44.88419 | -93.21790 | 832 ft | 8 kts | 46° |
| 2026-05-04 02:47 | 44.88461 | -93.21731 | 832 ft | 8 kts | 45° |
| 2026-05-04 02:47 | 44.88504 | -93.21671 | 831 ft | 9 kts | 44° |
| 2026-05-04 02:47 | 44.88506 | -93.21603 | 831 ft | 8 kts | 118° |
| 2026-05-04 02:47 | 44.88480 | -93.21537 | 830 ft | 8 kts | 119° |
| 2026-05-04 02:48 | 44.88457 | -93.21465 | 830 ft | 8 kts | 112° |
| 2026-05-04 02:48 | 44.88461 | -93.21386 | 829 ft | 7 kts | 60° |
| 2026-05-04 02:48 | 44.88477 | -93.21344 | 829 ft | 0 kts | 59° |
| 2026-05-04 02:49 | 44.88480 | -93.21335 | 829 ft | 2 kts | 60° |
| 2026-05-04 02:49 | 44.88485 | -93.21324 | 829 ft | 0 kts | 59° |